createdAt,value
2022-09-27T00:00:25.944Z,1.58
2022-09-27T00:02:53.961Z,1.95
2022-09-27T00:05:21.818Z,1.15
2022-09-27T00:07:49.833Z,1.20
2022-09-27T00:10:17.589Z,1.98
2022-09-27T00:12:46.860Z,1.20
2022-09-27T00:15:14.569Z,1.23
2022-09-27T00:17:42.319Z,1.20
2022-09-27T00:20:11.227Z,1.10
2022-09-27T00:22:40.252Z,1.40
2022-09-27T00:25:08.659Z,1.60
2022-09-27T00:27:36.422Z,1.40
2022-09-27T00:30:06.209Z,1.13
2022-09-27T00:32:33.946Z,1.70
2022-09-27T00:35:02.167Z,1.52
2022-09-27T00:37:29.866Z,0.90
2022-09-27T00:39:57.564Z,1.00
2022-09-27T00:42:25.311Z,1.73
2022-09-27T00:45:17.888Z,1.15
2022-09-27T00:47:55.421Z,1.10
2022-09-27T00:50:28.423Z,1.30
2022-09-27T00:53:05.251Z,1.00
2022-09-27T00:55:37.785Z,1.20
2022-09-27T00:58:06.673Z,0.93
2022-09-27T01:00:40.042Z,1.52
2022-09-27T01:03:11.409Z,1.02
2022-09-27T01:05:39.304Z,1.30
2022-09-27T01:08:07.093Z,1.20
2022-09-27T01:10:42.059Z,1.67
2022-09-27T01:13:18.193Z,1.10
2022-09-27T01:15:55.148Z,0.88
2022-09-27T01:18:33.104Z,1.45
2022-09-27T01:21:28.752Z,0.80
2022-09-27T01:24:20.943Z,1.20
2022-09-27T01:27:15.361Z,1.25
2022-09-27T01:30:02.474Z,1.90
2022-09-27T01:32:37.168Z,0.90
2022-09-27T01:35:11.170Z,1.25
2022-09-27T01:37:46.467Z,1.20
2022-09-27T01:40:24.635Z,1.23
2022-09-27T01:42:59.759Z,1.00
2022-09-27T01:45:33.002Z,1.23
2022-09-27T01:48:05.630Z,0.85
2022-09-27T01:50:38.387Z,1.15
2022-09-27T01:53:10.189Z,0.70
2022-09-27T01:55:39.652Z,0.73
2022-09-27T01:58:13.914Z,0.90
2022-09-27T02:00:45.312Z,0.85
2022-09-27T02:03:17.988Z,0.70
2022-09-27T02:05:51.395Z,1.33
2022-09-27T02:08:29.070Z,1.35
2022-09-27T02:11:00.662Z,0.80
2022-09-27T02:13:37.267Z,1.50
2022-09-27T02:16:12.816Z,0.90
2022-09-27T02:18:52.566Z,1.05
2022-09-27T02:21:22.415Z,0.85
2022-09-27T02:23:55.843Z,1.00
2022-09-27T02:26:28.629Z,1.00
2022-09-27T02:29:02.347Z,1.33
2022-09-27T02:31:30.157Z,1.05
2022-09-27T02:34:03.762Z,0.90
2022-09-27T02:36:32.278Z,0.63
2022-09-27T02:39:01.253Z,0.80
2022-09-27T02:41:29.040Z,1.20
2022-09-27T02:44:01.011Z,0.80
2022-09-27T02:46:49.228Z,0.98
2022-09-27T02:49:32.899Z,0.90
2022-09-27T02:52:13.866Z,0.60
2022-09-27T02:54:48.597Z,1.02
2022-09-27T02:57:31.533Z,1.13
2022-09-27T03:00:06.631Z,1.08
2022-09-27T03:02:41.305Z,0.68
2022-09-27T03:05:14.592Z,0.80
2022-09-27T03:07:42.570Z,1.20
2022-09-27T03:10:17.831Z,0.90
2022-09-27T03:12:45.552Z,0.73
2022-09-27T03:15:14.175Z,0.70
2022-09-27T03:17:41.856Z,0.98
2022-09-27T03:20:11.155Z,0.90
2022-09-27T03:22:39.296Z,0.90
2022-09-27T03:25:07.953Z,0.90
2022-09-27T03:27:36.527Z,0.95
2022-09-27T03:30:04.820Z,1.20
2022-09-27T03:32:32.640Z,0.88
2022-09-27T03:35:00.367Z,1.10
2022-09-27T03:37:29.797Z,1.00
2022-09-27T03:39:57.636Z,1.02
2022-09-27T03:42:25.343Z,1.17
2022-09-27T03:44:53.055Z,0.77
2022-09-27T03:47:20.779Z,1.17
2022-09-27T03:49:48.579Z,1.58
2022-09-27T03:52:16.619Z,1.08
2022-09-27T03:54:45.947Z,1.15
2022-09-27T03:57:13.721Z,1.15
2022-09-27T03:59:41.468Z,1.42
2022-09-27T04:02:09.341Z,1.20
2022-09-27T04:04:37.092Z,1.25
2022-09-27T04:07:04.836Z,0.88
2022-09-27T04:09:32.633Z,1.00
2022-09-27T04:12:02.306Z,1.35
2022-09-27T04:14:30.053Z,0.98
2022-09-27T04:16:57.752Z,0.90
2022-09-27T04:19:25.432Z,1.17
2022-09-27T04:21:53.136Z,0.98
2022-09-27T04:24:20.847Z,1.25
2022-09-27T04:26:49.242Z,2.00
2022-09-27T04:29:18.459Z,0.90
2022-09-27T04:31:46.212Z,1.05
2022-09-27T04:34:13.931Z,1.00
2022-09-27T04:36:40.623Z,1.70
2022-09-27T04:39:10.370Z,3.00
2022-09-27T04:41:38.208Z,1.05
2022-09-27T04:44:06.725Z,0.63
2022-09-27T04:46:35.951Z,1.23
2022-09-27T04:49:04.340Z,1.27
2022-09-27T04:51:32.139Z,1.13
2022-09-27T04:53:59.822Z,0.82
2022-09-27T04:56:27.521Z,0.90
2022-09-27T04:58:55.240Z,0.50
2022-09-27T05:01:23.371Z,0.52
2022-09-27T05:03:52.499Z,1.02
2022-09-27T05:06:20.663Z,0.82
2022-09-27T05:08:48.593Z,1.10
2022-09-27T05:11:16.412Z,0.80
2022-09-27T05:13:44.133Z,0.90
2022-09-27T05:16:11.939Z,1.23
2022-09-27T05:18:39.734Z,0.70
2022-09-27T05:21:08.954Z,0.77
2022-09-27T05:23:37.336Z,0.82
2022-09-27T05:26:05.844Z,1.00
2022-09-27T05:28:35.234Z,1.15
2022-09-27T05:31:03.280Z,1.90
2022-09-27T05:33:31.391Z,0.70
2022-09-27T05:35:59.434Z,0.70
2022-09-27T05:38:28.545Z,1.23
2022-09-27T05:40:56.737Z,0.60
2022-09-27T05:43:24.958Z,0.77
2022-09-27T05:45:53.152Z,0.63
2022-09-27T05:48:22.097Z,0.88
2022-09-27T05:50:49.813Z,0.40
2022-09-27T05:53:17.508Z,0.50
2022-09-27T05:55:46.593Z,0.65
2022-09-27T05:58:16.132Z,0.60
2022-09-27T06:00:44.331Z,0.73
2022-09-27T06:03:14.086Z,0.65
2022-09-27T06:05:42.355Z,0.60
2022-09-27T06:08:12.986Z,0.70
2022-09-27T06:10:41.857Z,0.60
2022-09-27T06:13:13.051Z,0.60
2022-09-27T06:15:42.275Z,1.13
2022-09-27T06:18:12.976Z,1.15
2022-09-27T06:20:41.629Z,0.50
2022-09-27T06:23:11.103Z,1.63
2022-09-27T06:25:39.981Z,0.70
2022-09-27T06:28:08.349Z,0.70
2022-09-27T06:30:40.702Z,0.80
2022-09-27T06:33:10.642Z,1.20
2022-09-27T06:35:38.661Z,1.25
2022-09-27T06:38:08.863Z,1.10
2022-09-27T06:40:36.976Z,1.13
2022-09-27T06:43:05.178Z,0.82
2022-09-27T06:45:35.558Z,0.93
2022-09-27T06:48:06.348Z,0.75
2022-09-27T06:50:35.541Z,1.02
2022-09-27T06:53:03.531Z,0.90
2022-09-27T06:55:31.430Z,1.00
2022-09-27T06:58:17.520Z,1.17
2022-09-27T07:00:46.236Z,1.02
2022-09-27T07:03:16.016Z,1.10
2022-09-27T07:05:43.934Z,1.20
2022-09-27T07:08:12.927Z,1.25
2022-09-27T07:10:41.690Z,1.17
2022-09-27T07:13:10.981Z,1.17
2022-09-27T07:15:39.386Z,1.10
2022-09-27T07:18:08.873Z,1.05
2022-09-27T07:20:38.435Z,1.10
2022-09-27T07:23:16.055Z,0.93
2022-09-27T07:25:44.179Z,1.08
2022-09-27T07:28:21.011Z,1.40
2022-09-27T07:30:49.897Z,0.80
2022-09-27T07:33:17.900Z,1.23
2022-09-27T07:35:46.955Z,1.02
2022-09-27T07:38:14.982Z,1.02
2022-09-27T07:40:43.065Z,1.20
2022-09-27T07:43:12.207Z,1.00
2022-09-27T07:45:40.249Z,1.25
2022-09-27T07:48:08.601Z,1.20
2022-09-27T07:50:38.255Z,1.40
2022-09-27T07:53:07.377Z,1.13
2022-09-27T07:55:35.230Z,1.20
2022-09-27T07:58:07.663Z,1.27
2022-09-27T08:00:37.011Z,1.05
2022-09-27T08:03:07.954Z,1.60
2022-09-27T08:05:37.048Z,1.27
2022-09-27T08:08:05.516Z,1.23
2022-09-27T08:10:35.545Z,1.10
2022-09-27T08:13:04.852Z,1.40
2022-09-27T08:15:33.610Z,1.30
2022-09-27T08:18:01.334Z,1.05
2022-09-27T08:20:29.095Z,1.40
2022-09-27T08:22:56.865Z,1.70
2022-09-27T08:25:24.649Z,1.50
2022-09-27T08:27:57.855Z,1.17
2022-09-27T08:30:26.576Z,1.40
2022-09-27T08:32:56.908Z,1.35
2022-09-27T08:35:24.824Z,1.10
2022-09-27T08:37:56.406Z,1.65
2022-09-27T08:40:28.120Z,1.42
2022-09-27T08:43:05.316Z,2.00
2022-09-27T08:45:38.488Z,1.92
2022-09-27T08:48:07.657Z,1.67
2022-09-27T08:50:40.308Z,1.50
2022-09-27T08:53:18.756Z,1.67
2022-09-27T08:55:49.498Z,2.40
2022-09-27T08:58:29.369Z,1.85
2022-09-27T09:01:00.424Z,1.83
2022-09-27T09:03:30.284Z,2.60
2022-09-27T09:06:13.284Z,1.80
2022-09-27T09:08:55.294Z,1.98
2022-09-27T09:11:51.171Z,2.25
2022-09-27T09:14:45.732Z,2.38
2022-09-27T09:17:24.068Z,2.75
2022-09-27T09:20:04.831Z,2.50
2022-09-27T09:22:48.499Z,2.70
2022-09-27T09:25:25.013Z,2.53
2022-09-27T09:28:06.160Z,3.00
2022-09-27T09:30:43.346Z,2.80
2022-09-27T09:33:23.116Z,3.03
2022-09-27T09:35:58.997Z,3.33
2022-09-27T09:38:34.617Z,3.13
2022-09-27T09:41:07.124Z,3.17
2022-09-27T09:43:39.357Z,4.03
2022-09-27T09:46:15.391Z,3.15
2022-09-27T09:48:47.049Z,4.32
2022-09-27T09:51:22.639Z,3.63
2022-09-27T09:53:55.431Z,3.20
2022-09-27T09:56:27.191Z,3.20
2022-09-27T09:58:58.941Z,3.33
2022-09-27T10:01:31.267Z,3.25
2022-09-27T10:03:58.994Z,3.05
2022-09-27T10:06:29.449Z,2.78
2022-09-27T10:08:57.344Z,2.60
2022-09-27T10:11:27.485Z,3.10
2022-09-27T10:13:56.543Z,3.00
2022-09-27T10:16:28.846Z,2.63
2022-09-27T10:19:03.356Z,2.50
2022-09-27T10:21:32.072Z,2.22
2022-09-27T10:24:05.978Z,2.58
2022-09-27T10:26:34.690Z,2.40
2022-09-27T10:29:23.047Z,2.00
2022-09-27T10:31:52.150Z,1.85
2022-09-27T10:34:29.791Z,1.50
2022-09-27T10:37:07.585Z,1.38
2022-09-27T10:39:37.022Z,1.48
2022-09-27T10:42:21.038Z,1.38
2022-09-27T10:44:48.803Z,1.30
2022-09-27T10:47:23.221Z,1.50
2022-09-27T10:49:52.920Z,1.20
2022-09-27T10:52:22.951Z,1.30
2022-09-27T10:54:56.539Z,1.23
2022-09-27T10:57:26.579Z,1.40
2022-09-27T10:59:57.785Z,0.90
2022-09-27T11:02:29.927Z,1.13
2022-09-27T11:05:13.932Z,0.70
2022-09-27T11:07:50.396Z,1.00
2022-09-27T11:10:28.895Z,0.88
2022-09-27T11:13:14.631Z,1.63
2022-09-27T11:16:03.373Z,1.77
2022-09-27T11:18:43.639Z,1.25
2022-09-27T11:21:24.561Z,0.98
2022-09-27T11:24:13.664Z,0.95
2022-09-27T11:26:54.894Z,0.70
2022-09-27T11:29:35.246Z,0.95
2022-09-27T11:32:21.057Z,0.85
2022-09-27T11:35:06.843Z,1.05
2022-09-27T11:37:48.938Z,0.75
2022-09-27T11:40:31.808Z,1.40
2022-09-27T11:43:16.180Z,0.55
2022-09-27T11:46:15.457Z,0.80
2022-09-27T11:49:07.899Z,0.77
2022-09-27T11:51:54.887Z,0.70
2022-09-27T11:54:47.107Z,0.80
2022-09-27T11:57:26.373Z,0.90
2022-09-27T12:00:10.544Z,0.77
2022-09-27T12:03:14.398Z,0.90
2022-09-27T12:05:58.442Z,0.57
2022-09-27T12:08:38.987Z,0.75
2022-09-27T12:11:16.216Z,0.65
2022-09-27T12:13:48.420Z,0.70
2022-09-27T12:16:18.885Z,0.60
2022-09-27T12:18:51.604Z,0.50
2022-09-27T12:21:21.187Z,0.45
2022-09-27T12:23:51.407Z,0.50
2022-09-27T12:26:25.076Z,0.57
2022-09-27T12:28:56.854Z,0.73
2022-09-27T12:31:31.479Z,0.45
2022-09-27T12:34:09.736Z,0.70
2022-09-27T12:36:44.297Z,0.68
2022-09-27T12:39:19.302Z,0.88
2022-09-27T12:41:52.733Z,0.73
2022-09-27T12:44:20.559Z,0.60
2022-09-27T12:47:03.652Z,0.98
2022-09-27T12:49:42.763Z,0.73
2022-09-27T12:52:14.400Z,0.77
2022-09-27T12:55:17.160Z,0.80
2022-09-27T12:58:00.841Z,1.27
2022-09-27T13:00:34.321Z,0.77
2022-09-27T13:03:26.368Z,0.65
2022-09-27T13:06:29.678Z,0.90
2022-09-27T13:09:22.664Z,0.68
2022-09-27T13:12:02.171Z,0.60
2022-09-27T13:14:34.555Z,0.65
2022-09-27T13:17:02.488Z,0.70
2022-09-27T13:19:45.678Z,0.50
2022-09-27T13:22:38.455Z,0.45
2022-09-27T13:25:39.787Z,0.90
2022-09-27T13:28:33.107Z,0.98
2022-09-27T13:31:03.681Z,0.80
2022-09-27T13:33:43.564Z,1.25
2022-09-27T13:36:30.150Z,1.02
2022-09-27T13:39:19.854Z,0.80
2022-09-27T13:42:07.296Z,0.68
2022-09-27T13:44:46.806Z,1.27
2022-09-27T13:47:32.975Z,0.68
2022-09-27T13:50:14.897Z,0.80
2022-09-27T13:52:46.135Z,0.77
2022-09-27T13:55:43.571Z,0.90
2022-09-27T13:58:23.400Z,1.73
2022-09-27T14:00:54.652Z,1.00
2022-09-27T14:03:29.837Z,0.85
2022-09-27T14:06:04.370Z,0.73
2022-09-27T14:08:38.333Z,1.08
2022-09-27T14:11:15.028Z,1.35
2022-09-27T14:16:16.797Z,1.38
2022-09-27T14:18:52.524Z,0.93
2022-09-27T14:21:30.198Z,1.23
2022-09-27T14:24:28.862Z,1.20
2022-09-27T14:27:11.589Z,1.40
2022-09-27T14:29:43.042Z,1.00
2022-09-27T14:32:13.169Z,1.30
2022-09-27T14:34:42.530Z,1.45
2022-09-27T14:37:26.387Z,1.33
2022-09-27T14:39:56.953Z,1.13
2022-09-27T14:42:26.680Z,1.80
2022-09-27T14:44:56.959Z,1.73
2022-09-27T14:47:27.708Z,1.08
2022-09-27T14:49:59.735Z,1.27
2022-09-27T14:52:31.250Z,1.20
2022-09-27T14:55:01.265Z,1.17
2022-09-27T14:57:32.738Z,1.20
2022-09-27T15:00:05.141Z,2.13
2022-09-27T15:02:34.014Z,1.30
2022-09-27T15:05:03.222Z,1.10
2022-09-27T15:07:32.685Z,1.13
2022-09-27T15:10:00.627Z,1.20
2022-09-27T15:12:29.161Z,1.50
2022-09-27T15:14:59.418Z,1.15
2022-09-27T15:17:27.237Z,1.20
2022-09-27T15:20:06.054Z,1.30
2022-09-27T15:22:43.836Z,1.75
2022-09-27T15:25:24.607Z,1.17
2022-09-27T15:27:54.918Z,1.15
2022-09-27T15:30:30.379Z,1.30
2022-09-27T15:32:58.559Z,1.30
2022-09-27T15:35:33.286Z,2.05
2022-09-27T15:38:31.173Z,1.30
2022-09-27T15:43:30.827Z,1.17
2022-09-27T15:46:03.102Z,2.08
2022-09-27T15:48:37.593Z,1.52
2022-09-27T15:51:47.311Z,1.30
2022-09-27T15:54:15.059Z,1.65
2022-09-27T15:56:43.065Z,1.48
2022-09-27T15:59:19.889Z,1.63
2022-09-27T16:01:47.839Z,1.65
2022-09-27T16:04:15.835Z,1.50
2022-09-27T16:06:45.084Z,1.65
2022-09-27T16:09:19.589Z,1.52
2022-09-27T16:11:48.332Z,1.33
2022-09-27T16:14:18.581Z,1.45
2022-09-27T16:16:49.258Z,1.20
2022-09-27T16:19:17.158Z,1.35
2022-09-27T16:21:47.796Z,1.45
2022-09-27T16:24:17.171Z,1.17
2022-09-27T16:26:45.032Z,1.08
2022-09-27T16:29:14.393Z,1.27
2022-09-27T16:31:42.832Z,2.20
2022-09-27T16:34:11.066Z,1.65
2022-09-27T16:36:40.129Z,1.40
2022-09-27T16:39:12.839Z,1.40
2022-09-27T16:41:42.591Z,1.67
2022-09-27T16:44:12.407Z,1.27
2022-09-27T16:46:41.483Z,1.65
2022-09-27T16:49:30.797Z,1.45
2022-09-27T16:52:00.717Z,1.20
2022-09-27T16:54:30.605Z,1.10
2022-09-27T16:56:59.730Z,0.80
2022-09-27T16:59:27.887Z,1.48
2022-09-27T17:01:57.225Z,1.05
2022-09-27T17:04:25.481Z,1.75
2022-09-27T17:06:53.243Z,1.50
2022-09-27T17:09:21.725Z,1.23
2022-09-27T17:11:51.367Z,1.48
2022-09-27T17:14:19.265Z,1.20
2022-09-27T17:16:48.561Z,1.23
2022-09-27T17:19:18.407Z,1.48
2022-09-27T17:21:47.001Z,1.25
2022-09-27T17:24:15.127Z,1.40
2022-09-27T17:26:42.854Z,1.20
2022-09-27T17:29:13.119Z,1.25
2022-09-27T17:31:42.094Z,1.20
2022-09-27T17:34:14.202Z,1.25
2022-09-27T17:36:48.190Z,1.33
2022-09-27T17:39:17.904Z,1.45
2022-09-27T17:41:46.208Z,1.40
2022-09-27T17:44:18.281Z,1.33
2022-09-27T17:46:46.898Z,1.45
2022-09-27T17:49:32.773Z,1.02
2022-09-27T17:52:01.317Z,1.30
2022-09-27T17:54:30.319Z,1.52
2022-09-27T17:56:58.096Z,1.10
2022-09-27T17:59:27.259Z,1.08
2022-09-27T18:01:55.444Z,1.02
2022-09-27T18:04:23.331Z,1.20
2022-09-27T18:06:51.058Z,1.20
2022-09-27T18:09:19.676Z,1.20
2022-09-27T18:11:48.062Z,1.00
2022-09-27T18:14:15.946Z,1.20
2022-09-27T18:16:45.082Z,1.10
2022-09-27T18:19:14.939Z,1.13
2022-09-27T18:21:42.971Z,1.27
2022-09-27T18:24:11.843Z,1.00
2022-09-27T18:26:40.760Z,1.15
2022-09-27T18:29:11.309Z,1.00
2022-09-27T18:31:39.984Z,1.45
2022-09-27T18:34:10.034Z,1.27
2022-09-27T18:36:40.733Z,1.20
2022-09-27T18:39:11.527Z,1.00
2022-09-27T18:41:39.316Z,1.10
2022-09-27T18:44:08.051Z,1.02
2022-09-27T18:46:37.532Z,1.20
2022-09-27T18:49:07.208Z,1.20
2022-09-27T18:51:37.690Z,0.88
2022-09-27T18:54:08.218Z,1.60
2022-09-27T18:56:39.686Z,1.02
2022-09-27T18:59:08.906Z,1.33
2022-09-27T19:01:39.626Z,0.90
2022-09-27T19:04:08.364Z,1.02
2022-09-27T19:06:39.493Z,1.30
2022-09-27T19:09:08.182Z,0.98
2022-09-27T19:11:36.314Z,1.13
2022-09-27T19:14:04.323Z,1.20
2022-09-27T19:16:32.355Z,1.30
2022-09-27T19:19:00.220Z,1.20
2022-09-27T19:21:30.508Z,1.15
2022-09-27T19:23:59.768Z,1.13
2022-09-27T19:26:28.449Z,1.10
2022-09-27T19:28:56.431Z,1.30
2022-09-27T19:31:26.408Z,1.15
2022-09-27T19:33:59.659Z,0.90
2022-09-27T19:36:28.683Z,1.10
2022-09-27T19:38:58.661Z,1.20
2022-09-27T19:41:28.307Z,1.13
2022-09-27T19:43:57.647Z,0.90
2022-09-27T19:46:26.661Z,1.10
2022-09-27T19:48:55.156Z,1.30
2022-09-27T19:51:24.976Z,1.00
2022-09-27T19:53:53.884Z,1.05
2022-09-27T19:56:22.888Z,1.00
2022-09-27T19:58:52.333Z,1.27
2022-09-27T20:01:22.580Z,1.10
2022-09-27T20:03:51.964Z,1.23
2022-09-27T20:06:21.741Z,0.88
2022-09-27T20:08:49.808Z,1.20
2022-09-27T20:11:19.349Z,1.27
2022-09-27T20:13:47.050Z,1.23
2022-09-27T20:16:17.993Z,1.35
2022-09-27T20:18:47.564Z,0.90
2022-09-27T20:21:16.751Z,1.20
2022-09-27T20:23:45.164Z,1.30
2022-09-27T20:26:14.492Z,1.25
2022-09-27T20:28:43.694Z,1.35
2022-09-27T20:31:13.554Z,1.05
2022-09-27T20:33:43.906Z,1.50
2022-09-27T20:36:13.740Z,1.00
2022-09-27T20:38:42.457Z,1.20
2022-09-27T20:41:10.605Z,1.10
2022-09-27T20:43:38.957Z,1.33
2022-09-27T20:46:08.777Z,1.20
2022-09-27T20:48:37.588Z,1.77
2022-09-27T20:51:08.289Z,1.30
2022-09-27T20:53:36.779Z,1.50
2022-09-27T20:56:05.174Z,1.60
2022-09-27T20:58:33.536Z,1.30
2022-09-27T21:01:06.788Z,1.33
2022-09-27T21:03:35.523Z,1.10
2022-09-27T21:06:04.637Z,1.13
2022-09-27T21:08:35.542Z,1.52
2022-09-27T21:11:08.527Z,1.30
2022-09-27T21:13:37.032Z,1.55
2022-09-27T21:16:06.416Z,1.30
2022-09-27T21:18:34.949Z,1.30
2022-09-27T21:21:04.393Z,1.90
2022-09-27T21:23:34.975Z,1.70
2022-09-27T21:26:07.634Z,1.52
2022-09-27T21:28:37.144Z,1.10
2022-09-27T21:31:07.112Z,1.65
2022-09-27T21:33:35.569Z,1.10
2022-09-27T21:36:04.786Z,1.20
2022-09-27T21:38:34.862Z,1.10
2022-09-27T21:41:05.335Z,1.00
2022-09-27T21:43:35.082Z,1.42
2022-09-27T21:46:03.888Z,1.48
2022-09-27T21:48:32.611Z,1.55
2022-09-27T21:51:05.539Z,1.20
2022-09-27T21:53:35.462Z,1.45
2022-09-27T21:56:03.912Z,1.48
2022-09-27T21:58:34.112Z,1.40
2022-09-27T22:01:08.847Z,1.40
2022-09-27T22:03:37.493Z,1.27
2022-09-27T22:06:06.587Z,1.27
2022-09-27T22:08:36.076Z,1.10
2022-09-27T22:11:04.147Z,1.10
2022-09-27T22:13:32.688Z,1.35
2022-09-27T22:16:04.459Z,1.25
2022-09-27T22:18:34.771Z,1.27
2022-09-27T22:21:04.266Z,1.27
2022-09-27T22:23:32.029Z,1.10
2022-09-27T22:26:01.679Z,1.20
2022-09-27T22:28:29.439Z,1.20
2022-09-27T22:30:57.236Z,2.15
2022-09-27T22:33:25.000Z,1.30
2022-09-27T22:35:53.069Z,1.40
2022-09-27T22:38:20.823Z,1.15
2022-09-27T22:40:55.206Z,1.50
2022-09-27T22:43:25.521Z,0.93
2022-09-27T22:45:53.934Z,2.10
2022-09-27T22:48:21.670Z,1.55
2022-09-27T22:50:49.660Z,1.40
2022-09-27T22:53:17.370Z,1.23
2022-09-27T22:55:45.082Z,1.70
2022-09-27T22:58:12.939Z,1.45
2022-09-27T23:00:42.092Z,1.70
2022-09-27T23:03:09.864Z,1.58
2022-09-27T23:05:37.579Z,1.40
2022-09-27T23:08:05.436Z,1.50
2022-09-27T23:10:33.388Z,1.73
2022-09-27T23:13:01.156Z,1.58
2022-09-27T23:15:29.062Z,1.30
2022-09-27T23:17:58.255Z,1.60
2022-09-27T23:20:26.271Z,1.52
2022-09-27T23:22:54.416Z,2.35
2022-09-27T23:25:22.416Z,1.38
2022-09-27T23:27:50.949Z,1.42
2022-09-27T23:30:20.495Z,1.77
2022-09-27T23:32:53.362Z,1.75
2022-09-27T23:35:23.237Z,2.00
2022-09-27T23:37:54.204Z,1.98
2022-09-27T23:40:21.925Z,1.92
2022-09-27T23:42:49.651Z,1.90
2022-09-27T23:45:17.551Z,1.50
2022-09-27T23:47:45.299Z,1.90
2022-09-27T23:50:13.106Z,1.70
2022-09-27T23:52:42.209Z,2.40
2022-09-27T23:55:10.527Z,1.63
2022-09-27T23:57:38.285Z,1.85
